createdAt,value
2023-03-15T00:00:35.748Z,0.00
2023-03-15T00:05:22.394Z,0.00
2023-03-15T00:10:28.190Z,0.00
2023-03-15T00:15:17.449Z,0.00
2023-03-15T00:20:24.393Z,0.00
2023-03-15T00:25:28.605Z,0.00
2023-03-15T00:30:17.950Z,0.00
2023-03-15T00:35:24.439Z,0.00
2023-03-15T00:40:29.851Z,0.00
2023-03-15T00:45:19.019Z,0.00
2023-03-15T00:50:25.118Z,0.00
2023-03-15T00:55:30.938Z,0.00
2023-03-15T01:00:24.259Z,0.00
2023-03-15T01:05:25.544Z,0.00
2023-03-15T01:10:32.145Z,0.00
2023-03-15T01:15:20.424Z,0.00
2023-03-15T01:20:26.795Z,0.00
2023-03-15T01:25:33.191Z,0.00
2023-03-15T01:30:22.225Z,0.00
2023-03-15T01:35:28.025Z,0.00
2023-03-15T01:40:17.672Z,0.00
2023-03-15T01:45:23.490Z,0.00
2023-03-15T01:50:29.395Z,0.00
2023-03-15T01:55:18.287Z,0.00
2023-03-15T02:00:28.814Z,0.00
2023-03-15T02:05:30.158Z,0.00
2023-03-15T02:10:18.871Z,0.00
2023-03-15T02:15:25.320Z,0.00
2023-03-15T02:20:31.129Z,0.00
2023-03-15T02:25:20.104Z,0.00
2023-03-15T02:30:26.398Z,0.00
2023-03-15T02:35:32.609Z,0.00
2023-03-15T02:40:23.202Z,0.00
2023-03-15T02:45:27.350Z,0.00
2023-03-15T02:50:33.407Z,0.00
2023-03-15T02:55:22.638Z,0.00
2023-03-15T03:00:31.102Z,0.00
2023-03-15T03:05:17.100Z,0.00
2023-03-15T03:10:23.190Z,0.00
2023-03-15T03:15:28.916Z,0.00
2023-03-15T03:20:18.334Z,0.00
2023-03-15T03:25:24.482Z,0.00
2023-03-15T03:30:30.229Z,0.00
2023-03-15T03:35:19.555Z,0.00
2023-03-15T03:40:25.735Z,0.00
2023-03-15T03:45:31.473Z,0.00
2023-03-15T03:50:20.714Z,0.00
2023-03-15T03:55:26.871Z,0.00
2023-03-15T04:00:35.089Z,0.00
2023-03-15T04:05:21.069Z,0.00
2023-03-15T04:10:27.050Z,0.00
2023-03-15T04:15:33.344Z,0.00
2023-03-15T04:20:22.209Z,0.00
2023-03-15T04:25:29.492Z,0.00
2023-03-15T04:30:16.871Z,0.00
2023-03-15T04:35:22.997Z,0.00
2023-03-15T04:40:29.091Z,0.00
2023-03-15T04:45:17.799Z,0.00
2023-03-15T04:50:24.172Z,0.00
2023-03-15T04:55:30.251Z,0.00
2023-03-15T05:00:23.807Z,0.00
2023-03-15T05:05:25.034Z,0.00
2023-03-15T05:10:31.522Z,0.00
2023-03-15T05:15:19.537Z,0.00
2023-03-15T05:20:26.749Z,0.00
2023-03-15T05:25:32.605Z,0.21
2023-03-15T05:30:21.439Z,1.52
2023-03-15T05:35:27.299Z,2.92
2023-03-15T05:40:33.465Z,5.07
2023-03-15T05:45:22.875Z,7.07
2023-03-15T05:50:28.866Z,9.95
2023-03-15T05:55:17.474Z,14.90
2023-03-15T06:00:26.954Z,19.57
2023-03-15T06:05:29.358Z,24.07
2023-03-15T06:10:17.937Z,32.57
2023-03-15T06:15:24.297Z,39.73
2023-03-15T06:20:30.355Z,46.40
2023-03-15T06:25:18.465Z,52.35
2023-03-15T06:30:24.494Z,51.53
2023-03-15T06:35:30.637Z,60.10
2023-03-15T06:40:20.990Z,60.15
2023-03-15T06:45:25.717Z,60.07
2023-03-15T06:50:46.002Z,67.38
2023-03-15T06:55:20.849Z,79.39
2023-03-15T07:00:29.430Z,78.82
2023-03-15T07:05:33.277Z,67.94
2023-03-15T07:10:22.314Z,54.71
2023-03-15T07:15:28.566Z,57.68
2023-03-15T07:20:17.524Z,140.11
2023-03-15T07:25:23.365Z,159.76
2023-03-15T07:30:29.459Z,153.65
2023-03-15T07:35:18.357Z,157.38
2023-03-15T07:40:24.655Z,127.93
2023-03-15T07:45:30.415Z,153.66
2023-03-15T07:50:19.302Z,273.45
2023-03-15T07:55:25.690Z,266.73
2023-03-15T08:00:34.288Z,278.88
2023-03-15T08:05:20.895Z,263.50
2023-03-15T08:10:25.775Z,247.71
2023-03-15T08:15:32.215Z,292.48
2023-03-15T08:20:22.505Z,306.09
2023-03-15T08:25:26.846Z,320.85
2023-03-15T08:30:32.612Z,343.74
2023-03-15T08:35:21.714Z,238.43
2023-03-15T08:40:27.913Z,173.06
2023-03-15T08:45:17.773Z,230.15
2023-03-15T08:50:23.076Z,226.28
2023-03-15T08:55:28.963Z,226.86
2023-03-15T09:00:21.205Z,245.02
2023-03-15T09:05:23.401Z,261.27
2023-03-15T09:10:29.594Z,314.59
2023-03-15T09:15:18.409Z,312.57
2023-03-15T09:20:27.316Z,186.33
2023-03-15T09:25:31.424Z,207.64
2023-03-15T09:30:20.463Z,394.88
2023-03-15T09:35:26.322Z,442.28
2023-03-15T09:40:32.813Z,555.28
2023-03-15T09:45:21.351Z,541.00
2023-03-15T09:50:27.683Z,474.25
2023-03-15T09:55:33.832Z,433.10
2023-03-15T10:00:23.878Z,275.65
2023-03-15T10:05:28.363Z,206.00
2023-03-15T10:10:17.277Z,169.92
2023-03-15T10:15:23.445Z,456.61
2023-03-15T10:20:29.240Z,628.60
2023-03-15T10:25:17.963Z,747.58
2023-03-15T10:30:25.806Z,456.77
2023-03-15T10:35:29.995Z,130.73
2023-03-15T10:40:20.795Z,117.87
2023-03-15T10:45:24.900Z,123.99
2023-03-15T10:50:31.174Z,222.81
2023-03-15T10:55:19.943Z,276.10
2023-03-15T11:00:29.701Z,399.97
2023-03-15T11:05:32.458Z,292.02
2023-03-15T11:10:21.998Z,477.77
2023-03-15T11:15:28.230Z,446.14
2023-03-15T11:20:36.519Z,115.67
2023-03-15T11:25:24.837Z,58.50
2023-03-15T11:30:28.113Z,52.83
2023-03-15T11:35:17.452Z,61.29
2023-03-15T11:40:23.449Z,90.43
2023-03-15T11:45:29.553Z,139.40
2023-03-15T11:50:18.192Z,136.38
2023-03-15T11:55:24.569Z,251.62
2023-03-15T12:00:34.392Z,245.10
2023-03-15T12:05:19.276Z,155.64
2023-03-15T12:10:24.770Z,136.17
2023-03-15T12:15:31.156Z,93.21
2023-03-15T12:20:20.078Z,126.46
2023-03-15T12:25:26.447Z,110.44
2023-03-15T12:30:32.370Z,123.96
2023-03-15T12:35:21.502Z,107.59
2023-03-15T12:40:27.430Z,119.20
2023-03-15T12:45:35.222Z,113.11
2023-03-15T12:50:22.397Z,107.07
2023-03-15T12:55:28.795Z,81.30
2023-03-15T13:00:21.476Z,131.71
2023-03-15T13:05:23.159Z,132.21
2023-03-15T13:10:31.203Z,156.38
2023-03-15T13:15:18.269Z,159.01
2023-03-15T13:20:25.085Z,181.82
2023-03-15T13:25:29.652Z,221.39
2023-03-15T13:30:18.446Z,179.80
2023-03-15T13:35:24.899Z,177.47
2023-03-15T13:40:30.839Z,165.63
2023-03-15T13:45:19.641Z,120.83
2023-03-15T13:50:25.936Z,89.71
2023-03-15T13:55:31.827Z,123.11
2023-03-15T14:00:39.919Z,172.23
2023-03-15T14:05:27.623Z,175.22
2023-03-15T14:10:33.537Z,147.29
2023-03-15T14:15:22.223Z,148.03
2023-03-15T14:20:28.612Z,144.10
2023-03-15T14:25:16.900Z,97.14
2023-03-15T14:30:22.993Z,108.53
2023-03-15T14:35:29.357Z,130.31
2023-03-15T14:40:20.399Z,67.06
2023-03-15T14:45:24.475Z,131.16
2023-03-15T14:50:30.374Z,113.70
2023-03-15T14:55:19.958Z,114.12
2023-03-15T15:00:27.755Z,79.08
2023-03-15T15:05:30.806Z,77.23
2023-03-15T15:10:19.595Z,57.64
2023-03-15T15:15:25.746Z,70.85
2023-03-15T15:20:31.808Z,82.41
2023-03-15T15:25:20.753Z,82.76
2023-03-15T15:30:26.738Z,122.89
2023-03-15T15:35:32.957Z,46.95
2023-03-15T15:40:23.161Z,24.46
2023-03-15T15:45:28.044Z,31.30
2023-03-15T15:50:16.757Z,87.37
2023-03-15T15:55:23.318Z,79.27
2023-03-15T16:00:29.932Z,48.12
2023-03-15T16:05:17.819Z,40.04
2023-03-15T16:10:23.650Z,35.98
2023-03-15T16:15:29.954Z,40.48
2023-03-15T16:20:19.127Z,51.19
2023-03-15T16:25:25.418Z,32.28
2023-03-15T16:30:33.336Z,41.13
2023-03-15T16:35:20.161Z,36.46
2023-03-15T16:40:26.694Z,32.28
2023-03-15T16:45:32.771Z,22.16
2023-03-15T16:50:21.299Z,15.30
2023-03-15T16:55:27.824Z,8.80
2023-03-15T17:00:35.692Z,5.67
2023-03-15T17:05:22.030Z,3.23
2023-03-15T17:10:27.908Z,0.07
2023-03-15T17:15:17.138Z,0.00
2023-03-15T17:20:24.257Z,0.00
2023-03-15T17:25:28.640Z,0.00
2023-03-15T17:30:18.059Z,0.00
2023-03-15T17:35:23.670Z,0.00
2023-03-15T17:40:30.152Z,0.00
2023-03-15T17:45:18.832Z,0.00
2023-03-15T17:50:24.876Z,0.00
2023-03-15T17:55:31.185Z,0.00
2023-03-15T18:00:23.618Z,0.00
2023-03-15T18:05:25.581Z,0.00
2023-03-15T18:10:31.497Z,0.00
2023-03-15T18:15:20.746Z,0.00
2023-03-15T18:20:27.348Z,0.00
2023-03-15T18:25:33.087Z,0.00
2023-03-15T18:30:22.026Z,0.00
2023-03-15T18:35:28.147Z,0.00
2023-03-15T18:40:17.234Z,0.00
2023-03-15T18:45:23.579Z,0.00
2023-03-15T18:50:29.359Z,0.00
2023-03-15T18:55:18.391Z,0.00
2023-03-15T19:00:27.601Z,0.00
2023-03-15T19:05:29.770Z,0.00
2023-03-15T19:10:19.103Z,0.00
2023-03-15T19:15:25.121Z,0.00
2023-03-15T19:20:30.944Z,0.00
2023-03-15T19:25:19.711Z,0.00
2023-03-15T19:30:25.491Z,0.00
2023-03-15T19:35:33.560Z,0.00
2023-03-15T19:40:21.060Z,0.00
2023-03-15T19:45:26.649Z,0.00
2023-03-15T19:50:33.005Z,0.00
2023-03-15T19:55:21.812Z,0.00
2023-03-15T20:00:28.711Z,0.00
2023-03-15T20:05:18.246Z,0.00
2023-03-15T20:10:24.336Z,0.00
2023-03-15T20:15:29.736Z,0.00
2023-03-15T20:20:20.012Z,0.00
2023-03-15T20:25:24.138Z,0.00
2023-03-15T20:30:30.505Z,0.00
2023-03-15T20:35:19.268Z,0.00
2023-03-15T20:40:26.077Z,0.00
2023-03-15T20:45:31.705Z,0.00
2023-03-15T20:50:20.900Z,0.00
2023-03-15T20:55:26.774Z,0.00
2023-03-15T21:00:32.980Z,0.00
2023-03-15T21:05:21.160Z,0.00
2023-03-15T21:10:26.951Z,0.00
2023-03-15T21:15:33.262Z,0.00
2023-03-15T21:20:23.798Z,0.00
2023-03-15T21:25:27.833Z,0.00
2023-03-15T21:30:16.586Z,0.00
2023-03-15T21:35:23.046Z,0.00
2023-03-15T21:40:29.037Z,0.00
2023-03-15T21:45:17.827Z,0.00
2023-03-15T21:50:24.225Z,0.00
2023-03-15T21:55:30.326Z,0.00
2023-03-15T22:00:20.690Z,0.00
2023-03-15T22:05:24.689Z,0.00
2023-03-15T22:10:30.636Z,0.00
2023-03-15T22:15:19.631Z,0.00
2023-03-15T22:20:27.281Z,0.00
2023-03-15T22:25:32.336Z,0.00
2023-03-15T22:30:21.290Z,0.00
2023-03-15T22:35:28.998Z,0.00
2023-03-15T22:40:33.506Z,0.00
2023-03-15T22:45:22.182Z,0.00
2023-03-15T22:50:28.853Z,0.00
2023-03-15T22:55:17.544Z,0.00
2023-03-15T23:00:28.235Z,0.00
2023-03-15T23:05:28.948Z,0.00
2023-03-15T23:10:18.391Z,0.00
2023-03-15T23:15:24.152Z,0.00
2023-03-15T23:20:32.642Z,0.00
2023-03-15T23:25:18.463Z,0.00
2023-03-15T23:30:25.408Z,0.00
2023-03-15T23:35:30.919Z,0.00
2023-03-15T23:40:19.830Z,0.00
2023-03-15T23:45:25.961Z,0.00
2023-03-15T23:50:32.165Z,0.00
2023-03-15T23:55:20.836Z,0.00
